메인 페이지
METAR-TAF:

METAR-TAF

공항 :

브뤼셀 공항

브뤼셀, 벨기에

위도: 50-54N, 경도: 004-32E, 고도: 55m

현재 날씨관측

예보는 24분 전, 09:20시(UTC)에 발표되었습니다.
북북동3kt북서풍과 풍을 오가는
온도 14°C
습도 77%
기압 1023 hPa
시정: 6000m
고도 800ft 상공 구름 조금

METAR: EBBR 200920Z 03003KT 310V090 6000 FEW008 14/10 Q1023 NOSIG

시각: 11:44 (09:44 UTC)

예보

예보는 4 시간 34분 전, 05:10시(UTC)에 발표되었습니다.
예보 대상 시간: 20일 06시부터 21일 12시까지 (UTC)
북북동4kt
시정: 0400m
고도 100ft 상공 구름 많음
안개
전환 중
20일 07시부터 20일 09시까지 (UTC)
시정 10km 이상
고도 4000ft 상공 구름 조금
확률 40% :
일시적
20일 18시부터 20일 20시까지 (UTC)
여러 방향의 바람 20kt, 순간 최대 풍속 30kt
시정: 3000m
소나기, 뇌우, 비

TAF: EBBR 200510Z 2006/2112 03004KT 0400 FG BKN001 BECMG 2007/2009 9999 NSW FEW040 PROB40 TEMPO 2018/2020 VRB20G30KT 3000 SHRA TSRA

4,000개 이상의 공항 관측 자료 및 예보 (METAR 및 TAF 보고).

지도상에서 검색 가능한 기상관측소가 노란 점과 빨간 점으로 표시되어 있습니다.

기상관측소 명을 보려면 표시 위로 마우스를 이동하세요.

날씨 관측과 예보를 보려면 클릭하세요.

지도 변경 : 확대하려면 엑스 표시가 있는 녹색 버튼, 축소하려면 빼기 표시가 있는 녹색 버튼, 다음 페이지의 지도를 보려면 녹색 화살표를 클릭하세요.


METAR-TAF: